createdAt,value
2022-10-09T00:00:06.715Z,19.92
2022-10-09T00:01:15.724Z,17.90
2022-10-09T00:02:18.681Z,13.85
2022-10-09T00:03:20.750Z,16.45
2022-10-09T00:04:23.822Z,18.67
2022-10-09T00:05:27.082Z,13.02
2022-10-09T00:06:31.834Z,19.50
2022-10-09T00:07:33.924Z,9.75
2022-10-09T00:08:39.361Z,13.98
2022-10-09T00:09:41.383Z,11.45
2022-10-09T00:10:45.397Z,15.43
2022-10-09T00:11:48.702Z,13.35
2022-10-09T00:12:51.780Z,15.15
2022-10-09T00:13:54.835Z,8.90
2022-10-09T00:14:57.706Z,12.07
2022-10-09T00:16:02.990Z,11.20
2022-10-09T00:17:06.195Z,15.23
2022-10-09T00:18:09.056Z,12.95
2022-10-09T00:19:12.080Z,16.73
2022-10-09T00:20:14.333Z,12.32
2022-10-09T00:21:23.429Z,16.55
2022-10-09T00:22:25.348Z,12.70
2022-10-09T00:23:28.416Z,12.80
2022-10-09T00:24:30.316Z,17.08
2022-10-09T00:25:33.580Z,16.98
2022-10-09T00:26:35.518Z,13.77
2022-10-09T00:27:39.760Z,15.07
2022-10-09T00:28:41.724Z,8.95
2022-10-09T00:29:44.704Z,13.63
2022-10-09T00:30:46.652Z,15.35
2022-10-09T00:31:50.757Z,15.38
2022-10-09T00:32:52.766Z,15.32
2022-10-09T00:33:55.712Z,10.60
2022-10-09T00:34:57.736Z,15.25
2022-10-09T00:36:03.511Z,15.50
2022-10-09T00:37:05.449Z,11.05
2022-10-09T00:38:09.085Z,19.63
2022-10-09T00:39:10.998Z,16.58
2022-10-09T00:40:13.963Z,14.35
2022-10-09T00:41:19.193Z,16.98
2022-10-09T00:42:22.110Z,13.10
2022-10-09T00:43:41.427Z,14.35
2022-10-09T00:44:54.152Z,14.55
2022-10-09T00:45:56.800Z,20.77
2022-10-09T00:47:00.597Z,16.98
2022-10-09T00:48:07.194Z,14.70
2022-10-09T00:49:16.379Z,15.25
2022-10-09T00:50:22.708Z,13.00
2022-10-09T00:51:25.845Z,18.10
2022-10-09T00:52:27.850Z,14.90
2022-10-09T00:53:32.030Z,11.85
2022-10-09T00:54:37.898Z,17.83
2022-10-09T00:55:41.266Z,16.60
2022-10-09T00:56:43.939Z,11.52
2022-10-09T00:57:47.465Z,14.93
2022-10-09T00:58:54.986Z,15.90
2022-10-09T00:59:57.889Z,15.27
2022-10-09T01:00:59.860Z,12.00
2022-10-09T01:02:02.943Z,16.67
2022-10-09T01:03:05.057Z,15.38
2022-10-09T01:04:08.013Z,19.33
2022-10-09T01:05:11.022Z,11.10
2022-10-09T01:06:21.861Z,15.23
2022-10-09T01:08:40.559Z,19.17
2022-10-09T01:09:49.619Z,11.63
2022-10-09T01:11:00.397Z,15.55
2022-10-09T01:12:10.906Z,19.23
2022-10-09T01:13:22.499Z,13.98
2022-10-09T01:14:29.586Z,15.25
2022-10-09T01:15:38.393Z,18.65
2022-10-09T01:16:45.158Z,18.52
2022-10-09T01:17:55.822Z,17.15
2022-10-09T01:19:06.164Z,14.00
2022-10-09T01:20:25.707Z,14.90
2022-10-09T01:21:35.164Z,14.80
2022-10-09T01:22:52.021Z,11.75
2022-10-09T01:24:08.226Z,14.65
2022-10-09T01:25:16.871Z,11.23
2022-10-09T01:26:32.326Z,12.48
2022-10-09T01:27:39.008Z,12.30
2022-10-09T01:28:43.864Z,16.00
2022-10-09T01:29:50.083Z,12.18
2022-10-09T01:30:52.050Z,13.57
2022-10-09T01:31:56.789Z,13.60
2022-10-09T01:32:59.433Z,15.38
2022-10-09T01:34:02.901Z,13.68
2022-10-09T01:35:06.569Z,15.55
2022-10-09T01:36:10.882Z,14.52
2022-10-09T01:37:15.141Z,15.77
2022-10-09T01:38:19.301Z,13.45
2022-10-09T01:39:24.005Z,13.95
2022-10-09T01:40:29.169Z,10.73
2022-10-09T01:41:31.242Z,16.15
2022-10-09T01:42:34.232Z,12.52
2022-10-09T01:43:37.580Z,13.65
2022-10-09T01:44:40.640Z,17.45
2022-10-09T01:45:44.645Z,17.50
2022-10-09T01:46:48.086Z,15.05
2022-10-09T01:47:50.101Z,12.70
2022-10-09T01:49:03.785Z,11.57
2022-10-09T01:50:15.617Z,17.25
2022-10-09T01:51:23.289Z,12.55
2022-10-09T01:52:36.247Z,21.70
2022-10-09T01:53:41.639Z,16.13
2022-10-09T01:54:54.137Z,12.90
2022-10-09T01:56:03.774Z,17.73
2022-10-09T01:57:08.736Z,16.83
2022-10-09T01:58:19.094Z,14.32
2022-10-09T01:59:24.202Z,17.33
2022-10-09T02:00:28.085Z,15.23
2022-10-09T02:01:33.496Z,15.60
2022-10-09T02:02:37.726Z,14.75
2022-10-09T02:03:41.856Z,14.52
2022-10-09T02:04:45.674Z,19.98
2022-10-09T02:05:51.659Z,17.80
2022-10-09T02:06:55.574Z,15.05
2022-10-09T02:07:58.414Z,13.40
2022-10-09T02:09:03.451Z,14.80
2022-10-09T02:10:08.146Z,18.45
2022-10-09T02:11:11.588Z,12.45
2022-10-09T02:12:17.832Z,19.10
2022-10-09T02:13:21.398Z,21.77
2022-10-09T02:14:24.719Z,15.93
2022-10-09T02:15:35.825Z,14.93
2022-10-09T02:16:40.005Z,15.77
2022-10-09T02:17:46.789Z,12.07
2022-10-09T02:18:55.485Z,12.43
2022-10-09T02:20:04.750Z,11.95
2022-10-09T02:21:11.705Z,11.70
2022-10-09T02:22:17.208Z,20.38
2022-10-09T02:23:21.816Z,12.32
2022-10-09T02:24:25.742Z,16.02
2022-10-09T02:25:28.935Z,13.93
2022-10-09T02:26:31.882Z,14.25
2022-10-09T02:27:34.309Z,15.65
2022-10-09T02:28:39.735Z,10.25
2022-10-09T02:29:46.863Z,10.07
2022-10-09T02:30:57.624Z,12.55
2022-10-09T02:33:02.446Z,13.85
2022-10-09T02:34:06.553Z,12.65
2022-10-09T02:35:10.249Z,12.00
2022-10-09T02:36:12.405Z,12.70
2022-10-09T02:37:15.616Z,11.45
2022-10-09T02:38:17.593Z,14.25
2022-10-09T02:39:20.498Z,12.35
2022-10-09T02:40:22.567Z,20.05
2022-10-09T02:41:26.465Z,15.55
2022-10-09T02:42:28.372Z,13.27
2022-10-09T02:43:31.274Z,19.08
2022-10-09T02:44:33.306Z,16.45
2022-10-09T02:45:37.566Z,18.75
2022-10-09T02:46:39.688Z,18.58
2022-10-09T02:47:42.658Z,16.25
2022-10-09T02:48:45.139Z,16.73
2022-10-09T02:49:48.046Z,8.57
2022-10-09T02:50:50.073Z,17.40
2022-10-09T02:51:53.035Z,13.55
2022-10-09T02:52:54.949Z,14.65
2022-10-09T02:53:59.588Z,13.57
2022-10-09T02:55:01.495Z,14.57
2022-10-09T02:56:04.554Z,14.38
2022-10-09T02:57:06.519Z,14.25
2022-10-09T02:58:09.459Z,15.68
2022-10-09T02:59:11.470Z,12.68
2022-10-09T03:00:15.463Z,18.80
2022-10-09T03:01:18.867Z,16.20
2022-10-09T03:02:21.899Z,14.73
2022-10-09T03:03:24.212Z,15.70
2022-10-09T03:04:27.132Z,13.82
2022-10-09T03:05:29.047Z,12.40
2022-10-09T03:06:32.107Z,15.00
2022-10-09T03:07:34.071Z,27.08
2022-10-09T03:08:37.755Z,19.05
2022-10-09T03:09:39.728Z,14.52
2022-10-09T03:10:42.860Z,18.00
2022-10-09T03:11:44.893Z,16.38
2022-10-09T03:12:48.096Z,16.17
2022-10-09T03:13:51.023Z,14.77
2022-10-09T03:14:54.341Z,13.70
2022-10-09T03:16:02.531Z,14.07
2022-10-09T03:17:06.871Z,16.52
2022-10-09T03:18:08.857Z,12.80
2022-10-09T03:19:11.812Z,11.77
2022-10-09T03:20:13.827Z,16.67
2022-10-09T03:21:19.178Z,16.33
2022-10-09T03:22:21.218Z,18.85
2022-10-09T03:23:24.288Z,15.88
2022-10-09T03:24:26.270Z,12.90
2022-10-09T03:25:29.312Z,17.50
2022-10-09T03:26:31.364Z,13.23
2022-10-09T03:27:34.603Z,19.33
2022-10-09T03:28:37.661Z,17.83
2022-10-09T03:29:40.591Z,16.88
2022-10-09T03:30:42.624Z,10.32
2022-10-09T03:31:53.518Z,15.65
2022-10-09T03:32:57.009Z,16.85
2022-10-09T03:33:59.938Z,12.65
2022-10-09T03:35:01.870Z,11.95
2022-10-09T03:36:08.655Z,13.73
2022-10-09T03:37:11.631Z,14.77
2022-10-09T03:38:13.692Z,10.77
2022-10-09T03:39:16.614Z,14.18
2022-10-09T03:40:18.553Z,13.88
2022-10-09T03:41:21.520Z,14.80
2022-10-09T03:42:23.653Z,9.55
2022-10-09T03:43:26.803Z,9.82
2022-10-09T03:44:28.727Z,20.05
2022-10-09T03:45:32.323Z,17.60
2022-10-09T03:46:34.357Z,19.25
2022-10-09T03:47:37.341Z,16.23
2022-10-09T03:48:40.681Z,11.93
2022-10-09T03:49:43.896Z,17.10
2022-10-09T03:50:45.980Z,13.48
2022-10-09T03:51:49.401Z,12.38
2022-10-09T03:52:51.572Z,10.00
2022-10-09T03:53:54.809Z,16.95
2022-10-09T03:54:56.727Z,13.13
2022-10-09T03:55:59.758Z,18.65
2022-10-09T03:57:01.756Z,18.85
2022-10-09T03:58:05.105Z,16.25
2022-10-09T03:59:09.450Z,17.42
2022-10-09T04:00:13.806Z,19.98
2022-10-09T04:01:15.872Z,15.35
2022-10-09T04:02:18.935Z,18.60
2022-10-09T04:03:21.601Z,14.63
2022-10-09T04:04:25.858Z,9.75
2022-10-09T04:05:27.835Z,13.85
2022-10-09T04:06:30.746Z,13.30
2022-10-09T04:07:32.690Z,17.35
2022-10-09T04:08:36.495Z,13.02
2022-10-09T04:09:38.503Z,14.45
2022-10-09T04:10:41.468Z,16.45
2022-10-09T04:11:43.490Z,14.35
2022-10-09T04:12:47.072Z,14.98
2022-10-09T04:13:49.153Z,14.05
2022-10-09T04:14:52.235Z,16.50
2022-10-09T04:15:55.058Z,13.85
2022-10-09T04:16:58.015Z,18.45
2022-10-09T04:17:59.940Z,18.45
2022-10-09T04:19:03.329Z,13.65
2022-10-09T04:20:07.741Z,16.75
2022-10-09T04:21:12.869Z,19.40
2022-10-09T04:22:14.859Z,14.02
2022-10-09T04:23:18.232Z,15.68
2022-10-09T04:24:20.251Z,16.05
2022-10-09T04:25:23.200Z,19.95
2022-10-09T04:26:25.230Z,19.10
2022-10-09T04:27:28.297Z,13.95
2022-10-09T04:28:31.197Z,15.07
2022-10-09T04:29:34.202Z,15.98
2022-10-09T04:30:36.189Z,23.90
2022-10-09T04:31:39.227Z,20.33
2022-10-09T04:32:41.251Z,25.77
2022-10-09T04:33:44.235Z,22.15
2022-10-09T04:34:46.209Z,20.17
2022-10-09T04:35:53.854Z,20.80
2022-10-09T04:36:55.841Z,18.20
2022-10-09T04:37:58.760Z,19.35
2022-10-09T04:39:00.780Z,12.90
2022-10-09T04:40:03.821Z,15.65
2022-10-09T04:41:07.411Z,18.83
2022-10-09T04:42:10.458Z,15.98
2022-10-09T04:43:12.443Z,17.02
2022-10-09T04:44:15.392Z,16.17
2022-10-09T04:45:17.463Z,13.38
2022-10-09T04:46:20.408Z,13.38
2022-10-09T04:47:22.359Z,16.58
2022-10-09T04:48:25.495Z,14.35
2022-10-09T04:49:27.520Z,18.40
2022-10-09T04:50:30.434Z,11.65
2022-10-09T04:51:34.122Z,18.90
2022-10-09T04:52:37.144Z,14.40
2022-10-09T04:53:39.944Z,19.05
2022-10-09T04:54:42.892Z,17.55
2022-10-09T04:55:45.488Z,18.67
2022-10-09T04:56:48.554Z,18.88
2022-10-09T04:57:50.484Z,14.70
2022-10-09T04:58:53.457Z,18.52
2022-10-09T04:59:55.396Z,14.60
2022-10-09T05:00:58.801Z,13.07
2022-10-09T05:02:00.864Z,16.17
2022-10-09T05:03:04.180Z,20.60
2022-10-09T05:04:06.191Z,17.25
2022-10-09T05:05:10.106Z,17.40
2022-10-09T05:06:13.478Z,16.75
2022-10-09T05:07:17.792Z,24.80
2022-10-09T05:08:19.744Z,14.23
2022-10-09T05:09:22.781Z,22.33
2022-10-09T05:10:24.839Z,17.13
2022-10-09T05:11:28.125Z,11.68
2022-10-09T05:12:30.093Z,18.52
2022-10-09T05:13:36.645Z,11.80
2022-10-09T05:14:39.592Z,23.45
2022-10-09T05:15:41.535Z,15.20
2022-10-09T05:17:01.276Z,13.43
2022-10-09T05:18:06.502Z,13.95
2022-10-09T05:19:09.531Z,12.75
2022-10-09T05:20:11.676Z,23.98
2022-10-09T05:21:15.584Z,17.05
2022-10-09T05:22:18.935Z,15.43
2022-10-09T05:23:22.017Z,17.80
2022-10-09T05:24:23.969Z,10.65
2022-10-09T05:25:27.034Z,15.60
2022-10-09T05:26:29.313Z,19.15
2022-10-09T05:27:32.227Z,17.95
2022-10-09T05:28:35.082Z,19.25
2022-10-09T05:29:38.076Z,16.08
2022-10-09T05:30:41.195Z,20.08
2022-10-09T05:31:49.085Z,15.20
2022-10-09T05:32:51.782Z,13.07
2022-10-09T05:33:56.002Z,15.93
2022-10-09T05:34:57.953Z,15.60
2022-10-09T05:36:02.809Z,14.32
2022-10-09T05:37:04.807Z,16.38
2022-10-09T05:38:09.144Z,14.25
2022-10-09T05:39:11.184Z,18.45
2022-10-09T05:40:14.133Z,18.25
2022-10-09T05:41:17.923Z,17.10
2022-10-09T05:42:20.913Z,20.88
2022-10-09T05:43:24.055Z,14.93
2022-10-09T05:44:27.000Z,18.90
2022-10-09T05:45:29.022Z,16.05
2022-10-09T05:46:32.034Z,13.77
2022-10-09T05:47:34.097Z,21.90
2022-10-09T05:48:37.259Z,15.23
2022-10-09T05:49:39.323Z,16.95
2022-10-09T05:50:42.367Z,22.17
2022-10-09T05:51:44.520Z,16.38
2022-10-09T05:52:47.833Z,16.48
2022-10-09T05:53:52.351Z,16.90
2022-10-09T05:54:54.333Z,17.63
2022-10-09T05:56:01.563Z,15.15
2022-10-09T05:57:05.543Z,16.95
2022-10-09T05:58:08.560Z,15.07
2022-10-09T05:59:13.779Z,18.38
2022-10-09T06:00:16.838Z,18.52
2022-10-09T06:01:19.262Z,23.27
2022-10-09T06:02:22.346Z,15.02
2022-10-09T06:03:24.388Z,16.52
2022-10-09T06:04:27.524Z,17.38
2022-10-09T06:05:29.449Z,15.38
2022-10-09T06:06:36.614Z,16.90
2022-10-09T06:07:38.604Z,19.60
2022-10-09T06:08:41.559Z,17.67
2022-10-09T06:09:45.867Z,18.00
2022-10-09T06:10:47.796Z,16.83
2022-10-09T06:11:51.857Z,19.33
2022-10-09T06:12:53.877Z,13.45
2022-10-09T06:13:57.619Z,17.65
2022-10-09T06:14:59.631Z,17.60
2022-10-09T06:16:02.640Z,20.67
2022-10-09T06:17:05.642Z,20.30
2022-10-09T06:18:07.613Z,16.17
2022-10-09T06:19:12.859Z,17.15
2022-10-09T06:20:14.983Z,17.85
2022-10-09T06:21:18.234Z,14.77
2022-10-09T06:22:20.303Z,19.67
2022-10-09T06:23:23.675Z,21.80
2022-10-09T06:24:29.139Z,19.92
2022-10-09T06:25:32.823Z,22.80
2022-10-09T06:26:36.118Z,16.23
2022-10-09T06:27:38.051Z,18.05
2022-10-09T06:28:41.512Z,23.55
2022-10-09T06:29:43.555Z,13.35
2022-10-09T06:30:46.669Z,12.57
2022-10-09T06:31:49.637Z,20.13
2022-10-09T06:32:51.928Z,15.75
2022-10-09T06:33:55.731Z,20.88
2022-10-09T06:34:57.701Z,21.70
2022-10-09T06:36:09.729Z,19.85
2022-10-09T06:37:13.403Z,21.02
2022-10-09T06:38:15.509Z,17.25
2022-10-09T06:39:18.539Z,16.25
2022-10-09T06:40:20.536Z,17.13
2022-10-09T06:41:27.080Z,19.90
2022-10-09T06:42:29.153Z,27.63
2022-10-09T06:43:33.927Z,19.73
2022-10-09T06:44:36.037Z,22.00
2022-10-09T06:45:39.695Z,21.77
2022-10-09T06:46:42.064Z,20.17
2022-10-09T06:47:45.075Z,16.23
2022-10-09T06:48:47.323Z,17.75
2022-10-09T06:49:50.269Z,18.92
2022-10-09T06:50:52.272Z,15.80
2022-10-09T06:51:55.235Z,19.90
2022-10-09T06:52:57.228Z,21.55
2022-10-09T06:54:02.112Z,19.85
2022-10-09T06:55:04.699Z,21.40
2022-10-09T06:56:08.656Z,19.50
2022-10-09T06:57:13.038Z,19.23
2022-10-09T06:58:15.017Z,18.20
2022-10-09T06:59:18.189Z,21.25
2022-10-09T07:00:20.199Z,15.20
2022-10-09T07:01:25.150Z,17.88
2022-10-09T07:02:27.302Z,17.23
2022-10-09T07:03:31.208Z,17.98
2022-10-09T07:04:34.150Z,18.50
2022-10-09T07:05:36.094Z,12.73
2022-10-09T07:06:41.090Z,17.42
2022-10-09T07:07:43.191Z,18.45
2022-10-09T07:08:50.375Z,16.23
2022-10-09T07:09:53.325Z,13.35
2022-10-09T07:10:56.328Z,14.88
2022-10-09T07:11:59.678Z,14.63
2022-10-09T07:13:05.223Z,18.23
2022-10-09T07:14:09.967Z,17.55
2022-10-09T07:15:11.921Z,17.00
2022-10-09T07:16:15.033Z,16.55
2022-10-09T07:17:17.059Z,15.73
2022-10-09T07:18:19.974Z,18.83
2022-10-09T07:19:22.986Z,19.00
2022-10-09T07:20:24.999Z,20.40
2022-10-09T07:21:28.413Z,17.52
2022-10-09T07:22:31.395Z,19.30
2022-10-09T07:23:35.506Z,17.92
2022-10-09T07:24:38.693Z,17.83
2022-10-09T07:25:40.743Z,21.98
2022-10-09T07:26:46.002Z,13.02
2022-10-09T07:27:47.968Z,15.50
2022-10-09T07:28:53.530Z,18.80
2022-10-09T07:29:55.720Z,15.57
2022-10-09T07:30:58.712Z,14.20
2022-10-09T07:32:00.956Z,11.98
2022-10-09T07:33:04.018Z,12.13
2022-10-09T07:34:06.356Z,19.00
2022-10-09T07:35:09.616Z,15.73
2022-10-09T07:36:11.590Z,12.23
2022-10-09T07:37:14.536Z,17.13
2022-10-09T07:38:16.570Z,19.92
2022-10-09T07:39:20.160Z,13.85
2022-10-09T07:40:22.311Z,14.43
2022-10-09T07:41:26.925Z,16.25
2022-10-09T07:42:28.913Z,10.82
2022-10-09T07:43:32.223Z,20.55
2022-10-09T07:44:35.566Z,20.25
2022-10-09T07:45:38.509Z,15.18
2022-10-09T07:46:41.607Z,16.83
2022-10-09T07:47:43.618Z,13.88
2022-10-09T07:48:46.840Z,10.77
2022-10-09T07:49:48.821Z,18.00
2022-10-09T07:50:51.771Z,14.63
2022-10-09T07:51:53.753Z,15.93
2022-10-09T07:52:56.726Z,15.55
2022-10-09T07:54:00.220Z,15.75
2022-10-09T07:55:03.215Z,17.45
2022-10-09T07:56:06.045Z,11.50
2022-10-09T07:57:09.043Z,13.10
2022-10-09T07:58:10.993Z,12.15
2022-10-09T07:59:16.321Z,15.50
2022-10-09T08:00:20.021Z,13.73
2022-10-09T08:01:24.240Z,13.15
2022-10-09T08:02:26.318Z,12.93
2022-10-09T08:03:29.307Z,14.90
2022-10-09T08:04:32.337Z,13.43
2022-10-09T08:05:34.425Z,17.80
2022-10-09T08:06:37.815Z,12.48
2022-10-09T08:07:39.824Z,14.60
2022-10-09T08:08:42.997Z,14.80
2022-10-09T08:09:45.002Z,14.52
2022-10-09T08:10:47.980Z,11.77
2022-10-09T08:11:51.295Z,13.13
2022-10-09T08:12:53.360Z,12.70
2022-10-09T08:13:57.315Z,18.25
2022-10-09T08:14:59.585Z,14.57
2022-10-09T08:16:04.207Z,14.63
2022-10-09T08:17:07.225Z,13.68
2022-10-09T08:18:09.286Z,13.50
2022-10-09T08:19:12.250Z,13.52
2022-10-09T08:20:14.444Z,12.05
2022-10-09T08:21:19.278Z,14.52
2022-10-09T08:22:21.284Z,11.90
2022-10-09T08:23:24.224Z,18.52
2022-10-09T08:24:27.304Z,14.52
2022-10-09T08:25:29.731Z,14.38
2022-10-09T08:26:32.801Z,14.00
2022-10-09T08:27:34.826Z,14.88
2022-10-09T08:28:37.873Z,9.13
2022-10-09T08:29:40.457Z,9.40
2022-10-09T08:30:43.688Z,12.45
2022-10-09T08:31:48.359Z,11.13
2022-10-09T08:32:50.984Z,10.38
2022-10-09T08:33:55.028Z,13.02
2022-10-09T08:34:57.983Z,11.88
2022-10-09T08:36:15.188Z,12.90
2022-10-09T08:37:18.126Z,15.40
2022-10-09T08:38:44.927Z,12.13
2022-10-09T08:39:43.074Z,13.15
2022-10-09T08:40:54.930Z,11.00
2022-10-09T08:42:03.371Z,11.52
2022-10-09T08:43:07.248Z,11.10
2022-10-09T08:44:17.899Z,11.18
2022-10-09T08:45:20.067Z,18.35
2022-10-09T08:46:26.559Z,14.57
2022-10-09T08:47:38.238Z,13.63
2022-10-09T08:48:44.340Z,13.10
2022-10-09T08:49:54.699Z,12.18
2022-10-09T08:50:59.054Z,12.43
2022-10-09T08:52:15.691Z,12.30
2022-10-09T08:53:31.057Z,12.50
2022-10-09T08:54:36.248Z,15.25
2022-10-09T08:55:44.706Z,13.23
2022-10-09T08:56:47.767Z,12.57
2022-10-09T08:57:53.623Z,17.45
2022-10-09T08:58:56.035Z,11.90
2022-10-09T08:59:59.210Z,15.43
2022-10-09T09:01:06.430Z,13.35
2022-10-09T09:02:26.890Z,10.70
2022-10-09T09:03:58.716Z,8.57
2022-10-09T09:05:12.996Z,8.68
2022-10-09T09:06:24.423Z,10.57
2022-10-09T09:07:36.259Z,13.75
2022-10-09T09:08:51.070Z,10.98
2022-10-09T09:10:00.024Z,10.70
2022-10-09T09:11:22.607Z,9.18
2022-10-09T09:12:35.157Z,15.10
2022-10-09T09:13:50.789Z,10.65
2022-10-09T09:15:09.798Z,8.48
2022-10-09T09:16:25.237Z,11.77
2022-10-09T09:17:38.555Z,13.88
2022-10-09T09:18:45.368Z,9.38
2022-10-09T09:20:03.466Z,7.30
2022-10-09T09:21:15.881Z,9.23
2022-10-09T09:22:19.119Z,6.90
2022-10-09T09:23:27.634Z,13.48
2022-10-09T09:24:37.950Z,14.05
2022-10-09T09:25:43.104Z,4.97
2022-10-09T09:26:48.910Z,8.40
2022-10-09T09:27:55.091Z,12.85
2022-10-09T09:29:02.597Z,8.38
2022-10-09T09:30:17.010Z,8.90
2022-10-09T09:31:23.823Z,8.38
2022-10-09T09:32:29.876Z,11.68
2022-10-09T09:33:44.399Z,10.63
2022-10-09T09:34:47.452Z,7.22
2022-10-09T09:36:06.103Z,8.23
2022-10-09T09:37:11.798Z,10.15
2022-10-09T09:38:15.099Z,13.38
2022-10-09T09:40:44.367Z,10.93
2022-10-09T09:41:48.623Z,13.02
2022-10-09T09:42:52.062Z,8.55
2022-10-09T09:43:54.153Z,10.88
2022-10-09T09:45:00.526Z,11.30
2022-10-09T09:46:03.819Z,11.20
2022-10-09T09:47:14.292Z,8.25
2022-10-09T09:48:21.902Z,13.38
2022-10-09T09:49:27.687Z,6.68
2022-10-09T09:50:48.668Z,9.88
2022-10-09T09:52:01.758Z,9.13
2022-10-09T09:53:07.758Z,8.20
2022-10-09T09:54:17.962Z,11.18
2022-10-09T09:55:26.799Z,8.00
2022-10-09T09:57:07.137Z,11.00
2022-10-09T09:58:04.063Z,9.93
2022-10-09T09:59:06.634Z,10.93
2022-10-09T10:00:20.472Z,10.23
2022-10-09T10:01:26.704Z,12.23
2022-10-09T10:02:29.721Z,12.00
2022-10-09T10:03:33.615Z,10.15
2022-10-09T10:04:37.812Z,7.97
2022-10-09T10:05:45.727Z,9.13
2022-10-09T10:06:47.681Z,10.93
2022-10-09T10:07:52.685Z,9.23
2022-10-09T10:08:59.969Z,10.25
2022-10-09T10:10:07.206Z,6.72
2022-10-09T10:11:19.265Z,9.52
2022-10-09T10:12:21.310Z,6.75
2022-10-09T10:13:31.735Z,11.35
2022-10-09T10:14:35.357Z,7.90
2022-10-09T10:15:38.306Z,14.20
2022-10-09T10:16:42.170Z,8.48
2022-10-09T10:17:44.436Z,8.35
2022-10-09T10:18:47.414Z,8.93
2022-10-09T10:19:50.910Z,11.02
2022-10-09T10:20:56.538Z,9.60
2022-10-09T10:22:01.328Z,15.25
2022-10-09T10:23:04.741Z,7.55
2022-10-09T10:24:14.299Z,11.25
2022-10-09T10:25:19.316Z,9.05
2022-10-09T10:26:31.969Z,8.35
2022-10-09T10:27:37.746Z,7.25
2022-10-09T10:28:48.622Z,9.95
2022-10-09T10:29:54.709Z,11.20
2022-10-09T10:30:58.297Z,9.45
2022-10-09T10:32:07.950Z,11.10
2022-10-09T10:33:19.110Z,10.35
2022-10-09T10:35:29.225Z,9.77
2022-10-09T10:36:34.916Z,10.93
2022-10-09T10:37:43.019Z,9.07
2022-10-09T10:38:56.484Z,9.43
2022-10-09T10:40:04.577Z,10.63
2022-10-09T10:41:17.690Z,10.32
2022-10-09T10:42:25.902Z,7.50
2022-10-09T10:43:40.158Z,13.70
2022-10-09T10:44:50.385Z,10.68
2022-10-09T10:46:04.352Z,14.60
2022-10-09T10:47:11.926Z,11.27
2022-10-09T10:48:19.428Z,10.68
2022-10-09T10:49:24.000Z,11.82
2022-10-09T10:50:38.605Z,8.95
2022-10-09T10:52:18.077Z,7.47
2022-10-09T10:53:33.705Z,9.02
2022-10-09T10:54:40.084Z,8.55
2022-10-09T10:55:53.981Z,10.38
2022-10-09T10:57:06.896Z,10.95
2022-10-09T10:58:26.566Z,10.25
2022-10-09T10:59:40.750Z,12.73
2022-10-09T11:00:53.551Z,9.85
2022-10-09T11:02:14.257Z,9.38
2022-10-09T11:03:43.066Z,11.15
2022-10-09T11:04:55.122Z,14.55
2022-10-09T11:06:05.791Z,7.97
2022-10-09T11:08:37.486Z,10.18
2022-10-09T11:09:51.889Z,10.25
2022-10-09T11:11:00.759Z,12.98
2022-10-09T11:12:24.595Z,7.32
2022-10-09T11:13:49.927Z,9.55
2022-10-09T11:15:06.349Z,11.18
2022-10-09T11:16:27.309Z,8.52
2022-10-09T11:17:36.369Z,12.18
2022-10-09T11:18:53.969Z,7.07
2022-10-09T11:21:20.954Z,8.25
2022-10-09T11:22:59.970Z,9.95
2022-10-09T11:24:29.521Z,8.73
2022-10-09T11:25:41.605Z,7.13
2022-10-09T11:26:50.142Z,10.15
2022-10-09T11:27:59.013Z,10.93
2022-10-09T11:29:06.823Z,7.68
2022-10-09T11:30:12.588Z,13.02
2022-10-09T11:31:20.025Z,11.95
2022-10-09T11:32:29.517Z,7.70
2022-10-09T11:33:39.036Z,7.13
2022-10-09T11:34:48.102Z,11.10
2022-10-09T11:36:00.473Z,7.97
2022-10-09T11:37:08.071Z,6.45
2022-10-09T11:38:24.349Z,8.90
2022-10-09T11:39:32.031Z,10.15
2022-10-09T11:40:40.444Z,7.22
2022-10-09T11:41:46.740Z,8.90
2022-10-09T11:42:56.903Z,10.77
2022-10-09T11:44:18.111Z,8.27
2022-10-09T11:45:27.579Z,11.93
2022-10-09T11:46:43.327Z,8.23
2022-10-09T11:47:49.590Z,8.02
2022-10-09T11:49:00.711Z,7.70
2022-10-09T11:50:31.901Z,8.10
2022-10-09T11:51:41.732Z,8.63
2022-10-09T11:52:51.002Z,10.07
2022-10-09T11:53:54.848Z,8.32
2022-10-09T11:55:08.179Z,6.22
2022-10-09T11:56:24.174Z,9.43
2022-10-09T11:57:29.839Z,9.45
2022-10-09T11:58:33.162Z,8.25
2022-10-09T11:59:36.731Z,9.73
2022-10-09T12:00:39.689Z,8.05
2022-10-09T12:01:44.847Z,8.73
2022-10-09T12:02:58.426Z,8.48
2022-10-09T12:04:05.495Z,9.38
2022-10-09T12:05:18.085Z,9.07
2022-10-09T12:06:22.437Z,10.95
2022-10-09T12:07:32.484Z,8.20
2022-10-09T12:08:36.214Z,10.52
2022-10-09T12:09:41.985Z,9.68
2022-10-09T12:10:51.781Z,8.98
2022-10-09T12:11:59.366Z,8.93
2022-10-09T12:13:06.493Z,7.30
2022-10-09T12:14:09.904Z,7.32
2022-10-09T12:15:26.668Z,7.50
2022-10-09T12:16:39.569Z,8.73
2022-10-09T12:17:49.837Z,6.82
2022-10-09T12:18:51.824Z,7.47
2022-10-09T12:20:00.874Z,7.13
2022-10-09T12:21:06.885Z,9.05
2022-10-09T12:22:19.028Z,8.07
2022-10-09T12:23:27.330Z,9.32
2022-10-09T12:24:38.354Z,9.68
2022-10-09T12:25:43.955Z,9.65
2022-10-09T12:26:48.825Z,7.30
2022-10-09T12:27:56.804Z,6.47
2022-10-09T12:29:02.011Z,8.50
2022-10-09T12:30:19.886Z,6.25
2022-10-09T12:31:25.695Z,6.75
2022-10-09T12:32:33.358Z,5.70
2022-10-09T12:33:39.460Z,10.85
2022-10-09T12:34:47.603Z,10.85
2022-10-09T12:36:02.204Z,8.05
2022-10-09T12:37:12.433Z,9.43
2022-10-09T12:38:18.085Z,7.38
2022-10-09T12:39:23.746Z,7.32
2022-10-09T12:40:27.855Z,7.03
2022-10-09T12:41:35.325Z,9.45
2022-10-09T12:42:37.393Z,8.35
2022-10-09T12:43:45.727Z,9.07
2022-10-09T12:44:49.881Z,7.95
2022-10-09T12:45:54.826Z,9.63
2022-10-09T12:47:01.703Z,8.30
2022-10-09T12:48:12.234Z,7.85
2022-10-09T12:49:19.945Z,6.47
2022-10-09T12:50:28.165Z,6.82
2022-10-09T12:51:32.138Z,6.63
2022-10-09T12:52:34.991Z,7.72
2022-10-09T12:53:46.541Z,8.40
2022-10-09T12:54:49.446Z,7.38
2022-10-09T12:55:55.349Z,6.80
2022-10-09T12:57:00.250Z,7.70
2022-10-09T12:58:05.140Z,9.90
2022-10-09T12:59:13.769Z,6.50
2022-10-09T13:00:16.400Z,9.13
2022-10-09T13:01:20.593Z,6.60
2022-10-09T13:02:22.826Z,8.18
2022-10-09T13:03:34.677Z,8.40
2022-10-09T13:04:37.560Z,6.53
2022-10-09T13:05:41.542Z,7.45
2022-10-09T13:06:47.027Z,8.43
2022-10-09T13:07:53.792Z,8.82
2022-10-09T13:08:58.068Z,6.55
2022-10-09T13:10:07.247Z,7.90
2022-10-09T13:11:11.021Z,12.07
2022-10-09T13:12:20.599Z,7.90
2022-10-09T13:13:26.781Z,11.32
2022-10-09T13:14:36.053Z,8.30
2022-10-09T13:15:38.997Z,7.35
2022-10-09T13:16:42.144Z,7.57
2022-10-09T13:17:45.174Z,5.57
2022-10-09T13:18:55.971Z,5.25
2022-10-09T13:21:04.393Z,11.02
2022-10-09T13:22:09.606Z,6.72
2022-10-09T13:23:28.695Z,7.43
2022-10-09T13:24:30.590Z,7.13
2022-10-09T13:25:35.636Z,5.88
2022-10-09T13:26:39.526Z,7.80
2022-10-09T13:27:42.504Z,9.85
2022-10-09T13:28:44.512Z,9.77
2022-10-09T13:29:49.518Z,9.82
2022-10-09T13:30:51.863Z,7.68
2022-10-09T13:31:54.772Z,7.38
2022-10-09T13:32:57.016Z,6.93
2022-10-09T13:33:59.857Z,10.48
2022-10-09T13:35:01.753Z,7.10
2022-10-09T13:36:05.217Z,7.80
2022-10-09T13:37:07.226Z,7.28
2022-10-09T13:38:15.659Z,8.65
2022-10-09T13:39:17.963Z,8.35
2022-10-09T13:40:22.286Z,6.43
2022-10-09T13:41:25.110Z,7.97
2022-10-09T13:42:31.001Z,11.80
2022-10-09T13:43:34.167Z,8.00
2022-10-09T13:44:36.094Z,5.35
2022-10-09T13:45:40.454Z,8.23
2022-10-09T13:46:42.384Z,6.60
2022-10-09T13:47:45.314Z,9.18
2022-10-09T13:48:47.213Z,7.68
2022-10-09T13:49:50.350Z,7.63
2022-10-09T13:50:52.381Z,9.13
2022-10-09T13:51:55.712Z,11.40
2022-10-09T13:52:57.620Z,6.28
2022-10-09T13:54:00.868Z,9.48
2022-10-09T13:55:02.788Z,10.43
2022-10-09T13:56:07.742Z,6.32
2022-10-09T13:57:09.645Z,10.73
2022-10-09T13:58:12.935Z,7.18
2022-10-09T13:59:14.860Z,5.55
2022-10-09T14:00:17.952Z,6.95
2022-10-09T14:01:21.283Z,8.98
2022-10-09T14:02:24.605Z,6.85
2022-10-09T14:03:26.514Z,6.95
2022-10-09T14:04:30.414Z,4.50
2022-10-09T14:05:32.377Z,4.82
2022-10-09T14:06:37.176Z,9.45
2022-10-09T14:07:39.452Z,6.70
2022-10-09T14:08:43.022Z,8.73
2022-10-09T14:09:46.248Z,6.40
2022-10-09T14:10:49.393Z,7.18
2022-10-09T14:11:51.452Z,4.90
2022-10-09T14:12:54.372Z,6.72
2022-10-09T14:13:58.596Z,7.32
2022-10-09T14:15:01.840Z,7.05
2022-10-09T14:16:05.325Z,4.78
2022-10-09T14:17:09.640Z,8.10
2022-10-09T14:18:11.588Z,6.45
2022-10-09T14:19:14.864Z,7.80